Time;durP1;ratioP1;P1;durP2;ratioP2;P2;SDS_P1;SDS_P2;PMS_P1;PMS_P2;Temp;Humidity;BMP_temperature;BMP_pressure;BME280_temperature;BME280_humidity;BME280_pressure;Samples;Min_cycle;Max_cycle;Signal;HPM_P1;HPM_P2
2021/01/27 00:00:36;;;;;;;12.13;7.18;;;0.80;99.90;;;;;;5072453;28;20060;-65
2021/01/27 00:03:04;;;;;;;14.25;8.02;;;0.80;99.90;;;;;;5072653;28;20410;-64
2021/01/27 00:05:33;;;;;;;14.02;8.27;;;0.80;99.90;;;;;;5072003;28;20166;-64
2021/01/27 00:08:00;;;;;;;14.35;7.63;;;0.80;99.90;;;;;;5071808;28;20063;-65
2021/01/27 00:10:28;;;;;;;13.05;8.85;;;0.80;99.90;;;;;;5071800;28;20046;-64
2021/01/27 00:12:55;;;;;;;15.70;8.13;;;0.80;99.90;;;;;;5072379;28;20067;-64
2021/01/27 00:15:30;;;;;;;15.43;8.38;;;0.80;99.90;;;;;;5071085;28;20047;-64
2021/01/27 00:17:57;;;;;;;15.60;8.63;;;0.80;99.90;;;;;;5071365;28;20059;-64
2021/01/27 00:20:26;;;;;;;14.85;8.45;;;0.80;99.90;;;;;;5071979;28;20215;-64
2021/01/27 00:22:53;;;;;;;17.27;8.80;;;0.70;99.90;;;;;;5071924;28;20061;-65
2021/01/27 00:25:24;;;;;;;17.25;8.88;;;0.80;99.90;;;;;;5069993;28;20048;-65
2021/01/27 00:27:51;;;;;;;13.82;9.30;;;0.70;99.90;;;;;;5072099;28;20045;-64
2021/01/27 00:30:24;;;;;;;15.15;8.85;;;0.70;99.90;;;;;;5071231;28;20492;-64
2021/01/27 00:32:51;;;;;;;17.70;9.05;;;0.70;99.90;;;;;;5083346;28;20131;-65
2021/01/27 00:35:21;;;;;;;18.23;8.57;;;0.70;99.90;;;;;;5072258;28;20070;-64
2021/01/27 00:37:48;;;;;;;15.40;8.57;;;0.70;99.90;;;;;;5071976;28;20064;-64
2021/01/27 00:40:15;;;;;;;14.88;8.50;;;0.80;99.90;;;;;;5072218;28;20434;-65
2021/01/27 00:42:41;;;;;;;12.35;7.97;;;0.80;99.90;;;;;;5070801;28;20507;-65
2021/01/27 00:45:09;;;;;;;11.90;7.68;;;0.90;99.90;;;;;;5071531;28;20773;-64
2021/01/27 00:47:35;;;;;;;18.00;8.55;;;0.90;99.90;;;;;;5072043;28;20426;-65
2021/01/27 00:50:04;;;;;;;13.07;8.40;;;0.90;99.90;;;;;;5071136;28;20083;-64
2021/01/27 00:52:30;;;;;;;15.18;8.60;;;0.90;99.90;;;;;;5070482;28;20074;-64
2021/01/27 00:54:57;;;;;;;16.00;9.20;;;0.80;99.90;;;;;;5071542;28;20487;-66
2021/01/27 00:57:23;;;;;;;18.15;10.90;;;0.80;99.90;;;;;;5071876;28;20052;-64
2021/01/27 00:59:50;;;;;;;18.48;11.55;;;0.80;99.90;;;;;;5071454;28;20637;-64
2021/01/27 01:02:17;;;;;;;15.93;10.68;;;0.70;99.90;;;;;;5071669;28;20067;-64
2021/01/27 01:04:44;;;;;;;21.48;12.38;;;0.60;99.90;;;;;;5071601;28;20572;-64
2021/01/27 01:07:11;;;;;;;21.50;12.18;;;0.60;99.90;;;;;;5071333;28;20063;-64
2021/01/27 01:09:37;;;;;;;20.10;12.73;;;0.50;99.90;;;;;;5071755;28;20048;-64
2021/01/27 01:12:04;;;;;;;23.02;13.73;;;0.50;99.90;;;;;;5069833;28;20067;-64
2021/01/27 01:14:31;;;;;;;21.38;13.48;;;0.40;99.90;;;;;;5071517;28;20045;-64
2021/01/27 01:16:57;;;;;;;22.35;13.73;;;0.40;99.90;;;;;;5057145;28;20056;-64
2021/01/27 01:19:24;;;;;;;22.65;12.95;;;0.40;99.90;;;;;;5071740;28;20407;-64
2021/01/27 01:21:50;;;;;;;23.58;13.43;;;0.40;99.90;;;;;;5071020;28;20048;-64
2021/01/27 01:24:17;;;;;;;22.42;14.07;;;0.40;99.90;;;;;;5070876;28;20044;-64
2021/01/27 01:26:44;;;;;;;22.80;13.82;;;0.40;99.90;;;;;;5070732;28;20552;-64
2021/01/27 01:29:10;;;;;;;24.33;14.40;;;0.40;99.90;;;;;;5070999;28;20078;-65
2021/01/27 01:31:37;;;;;;;23.63;14.27;;;0.50;99.90;;;;;;5071115;28;20045;-64
2021/01/27 01:34:03;;;;;;;25.27;15.88;;;0.40;99.90;;;;;;5070915;28;20044;-64
2021/01/27 01:36:30;;;;;;;26.42;16.58;;;0.40;99.90;;;;;;5071033;28;20042;-64
2021/01/27 01:38:56;;;;;;;28.45;16.95;;;0.30;99.90;;;;;;5069942;28;20055;-64
2021/01/27 01:41:23;;;;;;;24.80;16.13;;;0.40;99.90;;;;;;5070912;28;20332;-64
2021/01/27 01:43:50;;;;;;;30.08;16.90;;;0.40;99.90;;;;;;5070613;28;20102;-64
2021/01/27 01:46:20;;;;;;;31.13;17.80;;;0.40;99.90;;;;;;5070607;28;20059;-65
2021/01/27 01:48:55;;;;;;;31.13;17.55;;;0.40;99.90;;;;;;5071003;28;20083;-64
2021/01/27 01:51:41;;;;;;;28.77;17.08;;;0.40;99.90;;;;;;5069702;28;20048;-64
2021/01/27 01:54:26;;;;;;;30.55;17.15;;;0.40;99.90;;;;;;5070288;28;20132;-64
2021/01/27 01:57:01;;;;;;;29.67;17.30;;;0.40;99.90;;;;;;5057250;28;20267;-64
2021/01/27 01:59:31;;;;;;;28.58;17.70;;;0.30;99.90;;;;;;5070904;28;20078;-67
2021/01/27 02:02:02;;;;;;;28.38;16.40;;;0.30;99.90;;;;;;5070771;28;20089;-64
2021/01/27 02:04:34;;;;;;;30.65;17.33;;;0.30;99.90;;;;;;5070755;28;20102;-64
2021/01/27 02:07:01;;;;;;;29.77;16.02;;;0.30;99.90;;;;;;5068902;28;20052;-64
2021/01/27 02:09:28;;;;;;;29.27;17.15;;;0.30;99.90;;;;;;5070825;28;20491;-64
2021/01/27 02:12:22;;;;;;;27.45;16.35;;;0.30;99.90;;;;;;5069893;28;20070;-65
2021/01/27 02:15:19;;;;;;;27.00;16.45;;;0.20;99.90;;;;;;5070484;28;20091;-65
2021/01/27 02:18:43;;;;;;;33.65;17.92;;;0.20;99.90;;;;;;5071267;28;20048;-64
2021/01/27 02:21:20;;;;;;;26.83;15.90;;;0.30;99.90;;;;;;5047604;28;20499;-65
2021/01/27 02:24:20;;;;;;;28.00;17.30;;;0.30;99.90;;;;;;5048006;28;20126;-65
2021/01/27 02:27:08;;;;;;;32.17;16.30;;;0.30;99.90;;;;;;5038145;28;20548;-65
2021/01/27 02:29:59;;;;;;;25.73;16.13;;;0.30;99.90;;;;;;5047836;28;20053;-65
2021/01/27 02:32:40;;;;;;;26.08;16.63;;;0.30;99.90;;;;;;5037468;28;20044;-65
2021/01/27 02:35:11;;;;;;;28.42;17.30;;;0.30;99.90;;;;;;5037492;28;20503;-65
2021/01/27 02:37:42;;;;;;;27.67;15.75;;;0.40;99.90;;;;;;5031640;28;20037;-65
2021/01/27 02:40:20;;;;;;;;;;;0.40;99.90;;;;;;5041330;28;20052;-65
2021/01/27 02:42:58;;;;;;;25.25;15.48;;;0.40;99.90;;;;;;5047720;28;19928;-65
2021/01/27 02:45:30;;;;;;;27.05;16.20;;;0.40;99.90;;;;;;5047514;28;20053;-65
2021/01/27 02:48:04;;;;;;;28.20;16.50;;;0.40;99.90;;;;;;5046532;28;20048;-65
2021/01/27 02:50:37;;;;;;;25.65;15.18;;;0.40;99.90;;;;;;5045992;28;20049;-65
2021/01/27 02:53:14;;;;;;;25.40;14.85;;;0.40;99.90;;;;;;5067303;28;20052;-65
2021/01/27 02:56:13;;;;;;;26.95;15.88;;;0.40;99.90;;;;;;5070265;28;20059;-65
2021/01/27 02:58:45;;;;;;;26.58;15.55;;;0.50;99.90;;;;;;5068272;28;20040;-65
2021/01/27 03:01:26;;;;;;;26.88;15.23;;;0.40;99.90;;;;;;5065990;28;20048;-65
2021/01/27 03:03:59;;;;;;;30.92;15.90;;;0.40;99.90;;;;;;5067055;28;20126;-66
2021/01/27 03:06:27;;;;;;;26.17;15.50;;;0.30;99.90;;;;;;5067539;28;20044;-65
2021/01/27 03:09:03;;;;;;;25.95;15.57;;;0.20;99.90;;;;;;5071093;28;20048;-65
2021/01/27 03:11:32;;;;;;;22.73;14.63;;;0.10;99.90;;;;;;5038559;28;20051;-65
2021/01/27 03:14:03;;;;;;;23.88;15.05;;;0.00;99.90;;;;;;5071504;28;20044;-65
2021/01/27 03:17:00;;;;;;;27.90;15.75;;;-0.10;99.90;;;;;;5071167;28;20051;-65
2021/01/27 03:19:55;;;;;;;29.05;15.73;;;-0.30;99.90;;;;;;5054510;28;20043;-65
2021/01/27 03:22:29;;;;;;;27.10;15.80;;;-0.40;99.90;;;;;;5069029;28;20052;-65
2021/01/27 03:25:05;;;;;;;27.10;15.35;;;-0.60;99.90;;;;;;5070079;28;20072;-65
2021/01/27 03:27:40;;;;;;;28.48;16.80;;;-0.60;99.90;;;;;;5064265;28;20050;-65
2021/01/27 03:30:11;;;;;;;26.13;15.52;;;-0.70;99.90;;;;;;5068763;28;20463;-65
2021/01/27 03:32:52;;;;;;;27.05;15.48;;;-0.70;99.90;;;;;;5069579;28;20048;-65
2021/01/27 03:35:45;;;;;;;26.45;15.73;;;-0.90;99.90;;;;;;5059005;28;20128;-65
2021/01/27 03:38:54;;;;;;;26.42;15.32;;;-0.80;99.90;;;;;;5071849;28;20457;-65
2021/01/27 03:41:34;;;;;;;26.58;15.35;;;-0.80;99.90;;;;;;5039421;28;20059;-65
2021/01/27 03:44:07;;;;;;;27.10;14.77;;;-0.80;99.90;;;;;;5050595;28;20049;-65
2021/01/27 03:47:02;;;;;;;29.00;15.40;;;-0.90;99.90;;;;;;5036332;28;20079;-65
2021/01/27 03:49:41;;;;;;;32.47;15.93;;;-0.90;99.90;;;;;;5047871;28;20045;-65
2021/01/27 03:52:31;;;;;;;22.00;13.57;;;-0.90;99.90;;;;;;5050040;28;20048;-64
2021/01/27 03:55:20;;;;;;;24.50;13.50;;;-0.90;99.90;;;;;;5060905;28;20049;-64
2021/01/27 03:58:13;;;;;;;22.95;12.73;;;-0.90;99.90;;;;;;5048950;28;20486;-64
2021/01/27 04:00:39;;;;;;;;;;;-1.00;99.90;;;;;;5051133;28;20056;-64
2021/01/27 04:03:17;;;;;;;23.98;12.88;;;-1.00;99.90;;;;;;5050168;28;19920;-64
2021/01/27 04:05:44;;;;;;;22.85;12.90;;;-1.00;99.90;;;;;;5061212;28;20049;-65
2021/01/27 04:08:10;;;;;;;20.65;12.32;;;-1.10;99.90;;;;;;5049092;28;20056;-64
2021/01/27 04:10:37;;;;;;;20.73;13.57;;;-1.20;99.90;;;;;;5061255;28;20045;-64
2021/01/27 04:13:04;;;;;;;23.17;12.75;;;-1.20;99.90;;;;;;5049760;28;20051;-64
2021/01/27 04:15:31;;;;;;;23.30;12.75;;;-1.20;99.90;;;;;;5063559;28;20045;-64
2021/01/27 04:17:57;;;;;;;26.00;12.70;;;-1.30;99.90;;;;;;5068459;28;20056;-64
2021/01/27 04:20:26;;;;;;;24.52;12.82;;;-1.20;99.90;;;;;;5070603;28;20078;-64
2021/01/27 04:22:53;;;;;;;20.42;12.55;;;-1.20;99.90;;;;;;5070377;28;20052;-64
2021/01/27 04:25:20;;;;;;;22.35;12.75;;;-1.30;99.90;;;;;;5072477;28;20053;-63
2021/01/27 04:27:46;;;;;;;22.40;13.75;;;-1.20;99.90;;;;;;5072756;28;20429;-64
2021/01/27 04:30:17;;;;;;;24.13;13.27;;;-1.30;99.90;;;;;;5070451;28;20048;-65
2021/01/27 04:32:44;;;;;;;23.13;13.33;;;-1.30;99.90;;;;;;5071957;28;20045;-65
2021/01/27 04:35:12;;;;;;;22.20;12.55;;;-1.20;99.90;;;;;;5070874;28;20047;-64
2021/01/27 04:37:38;;;;;;;23.27;12.57;;;-1.20;99.90;;;;;;5071540;28;20482;-65
2021/01/27 04:40:12;;;;;;;24.63;13.18;;;-1.20;99.90;;;;;;5071555;28;20059;-65
2021/01/27 04:42:38;;;;;;;24.38;13.73;;;-1.10;99.90;;;;;;5070812;28;20052;-65
2021/01/27 04:45:06;;;;;;;22.52;12.75;;;-1.10;99.90;;;;;;5071876;28;20140;-64
2021/01/27 04:47:54;;;;;;;22.83;12.95;;;-1.10;99.90;;;;;;5072068;28;20502;-64
2021/01/27 04:50:38;;;;;;;21.38;13.00;;;-1.00;99.90;;;;;;5060876;28;20056;-64
2021/01/27 04:53:42;;;;;;;22.98;12.88;;;-1.00;99.90;;;;;;5068530;28;20056;-64
2021/01/27 04:56:36;;;;;;;21.08;12.73;;;-1.00;99.90;;;;;;5065873;28;20048;-65
2021/01/27 04:59:13;;;;;;;26.25;13.40;;;-1.10;99.90;;;;;;5062605;28;20513;-65
2021/01/27 05:01:57;;;;;;;24.33;13.15;;;-1.10;99.90;;;;;;5070526;28;20045;-65
2021/01/27 05:04:53;;;;;;;20.73;12.55;;;-1.10;99.90;;;;;;5069866;28;20490;-65
2021/01/27 05:07:27;;;;;;;25.00;13.38;;;-1.10;99.90;;;;;;5066999;28;20052;-64
2021/01/27 05:10:00;;;;;;;22.17;13.07;;;-1.20;99.90;;;;;;5071450;28;20055;-65
2021/01/27 05:12:41;;;;;;;23.33;13.73;;;-1.20;99.90;;;;;;5070691;28;20475;-64
2021/01/27 05:15:10;;;;;;;25.40;14.02;;;-1.30;99.90;;;;;;5071905;28;20048;-64
2021/01/27 05:17:41;;;;;;;24.67;14.00;;;-1.30;99.90;;;;;;5070571;28;20120;-65
2021/01/27 05:20:10;;;;;;;23.87;13.73;;;-1.30;99.90;;;;;;5070696;28;20465;-64
2021/01/27 05:22:37;;;;;;;23.95;14.10;;;-1.40;99.90;;;;;;5070609;28;20801;-64
2021/01/27 05:25:06;;;;;;;26.40;14.27;;;-1.40;99.90;;;;;;5070407;28;20050;-65
2021/01/27 05:27:35;;;;;;;27.40;15.10;;;-1.40;99.90;;;;;;5070053;28;20051;-64
2021/01/27 05:30:22;;;;;;;24.95;15.35;;;-1.40;99.90;;;;;;5069645;28;20071;-64
2021/01/27 05:32:51;;;;;;;25.67;16.20;;;-1.30;99.90;;;;;;5069847;28;20072;-66
2021/01/27 05:35:28;;;;;;;30.77;15.98;;;-1.30;99.90;;;;;;5070157;28;20054;-64
2021/01/27 05:37:57;;;;;;;25.75;14.95;;;-1.30;99.90;;;;;;5063433;28;20582;-65
2021/01/27 05:40:32;;;;;;;26.27;15.32;;;-1.20;99.90;;;;;;5070688;28;20076;-65
2021/01/27 05:42:59;;;;;;;29.48;15.27;;;-1.30;99.90;;;;;;5067322;28;20059;-65
2021/01/27 05:45:50;;;;;;;28.50;15.13;;;-1.30;99.90;;;;;;5066822;28;20052;-65
2021/01/27 05:48:49;;;;;;;26.52;14.88;;;-1.30;99.90;;;;;;5069779;28;20056;-65
2021/01/27 05:51:37;;;;;;;27.98;14.32;;;-1.30;99.90;;;;;;5061598;28;20119;-64
2021/01/27 05:54:25;;;;;;;28.55;15.15;;;-1.30;99.90;;;;;;5071354;28;20443;-65
2021/01/27 05:56:52;;;;;;;26.10;14.80;;;-1.30;99.90;;;;;;5070198;28;20524;-65
2021/01/27 05:59:26;;;;;;;28.42;15.50;;;-1.30;99.90;;;;;;5071395;28;20048;-64
2021/01/27 06:02:00;;;;;;;28.63;14.38;;;-1.30;99.90;;;;;;5062323;28;20105;-64
2021/01/27 06:04:30;;;;;;;22.20;13.95;;;-1.30;99.90;;;;;;5065221;28;20052;-65
2021/01/27 06:07:03;;;;;;;27.48;15.00;;;-1.30;99.90;;;;;;5069999;28;20052;-65
2021/01/27 06:09:40;;;;;;;25.90;14.07;;;-1.30;99.90;;;;;;5070824;28;20044;-64
2021/01/27 06:12:09;;;;;;;25.08;14.60;;;-1.30;99.90;;;;;;5064229;28;20076;-65
2021/01/27 06:14:36;;;;;;;28.08;14.52;;;-1.30;99.90;;;;;;5065955;28;20496;-65
2021/01/27 06:17:25;;;;;;;23.85;14.02;;;-1.30;99.90;;;;;;5070470;28;20052;-65
2021/01/27 06:20:00;;;;;;;24.65;13.55;;;-1.30;99.90;;;;;;5070976;28;20599;-65
2021/01/27 06:22:48;;;;;;;29.88;15.25;;;-1.30;99.90;;;;;;5066086;28;20555;-65
2021/01/27 06:25:48;;;;;;;25.90;13.93;;;-1.30;99.90;;;;;;5071054;28;20410;-65
2021/01/27 06:28:17;;;;;;;26.30;14.75;;;-1.30;99.90;;;;;;5068235;28;20052;-65
2021/01/27 06:30:56;;;;;;;22.83;13.93;;;-1.20;99.90;;;;;;5069555;28;21441;-64
2021/01/27 06:33:37;;;;;;;24.75;12.80;;;-1.20;99.90;;;;;;5070162;28;20048;-64
2021/01/27 06:36:22;;;;;;;22.50;12.48;;;-1.20;99.90;;;;;;5066226;28;20056;-64
2021/01/27 06:39:10;;;;;;;27.15;14.52;;;-1.10;99.90;;;;;;5068758;28;20053;-64
2021/01/27 06:41:40;;;;;;;23.73;12.93;;;-1.10;99.90;;;;;;5070478;28;20053;-64
2021/01/27 06:44:21;;;;;;;26.30;13.05;;;-1.10;99.90;;;;;;5072030;28;20387;-64
2021/01/27 06:46:53;;;;;;;22.52;11.63;;;-1.20;99.90;;;;;;5061140;28;20070;-64
2021/01/27 06:49:23;;;;;;;20.65;12.20;;;-1.10;99.90;;;;;;5072549;28;20468;-64
2021/01/27 06:51:55;;;;;;;19.85;11.82;;;-1.10;99.90;;;;;;5071757;28;20044;-64
2021/01/27 06:54:46;;;;;;;22.67;12.07;;;-1.10;99.90;;;;;;5068980;28;20084;-64
2021/01/27 06:57:24;;;;;;;18.92;10.52;;;-1.10;99.90;;;;;;5062783;28;20518;-64
2021/01/27 07:00:18;;;;;;;23.65;12.73;;;-1.20;99.90;;;;;;5073696;28;20051;-64
2021/01/27 07:03:23;;;;;;;24.33;12.20;;;-1.20;99.90;;;;;;5073585;28;20517;-64
2021/01/27 07:05:55;;;;;;;20.10;11.90;;;-1.20;99.90;;;;;;5073128;28;20418;-64
2021/01/27 07:08:40;;;;;;;;;;;-1.20;99.90;;;;;;5072431;28;20051;-64
2021/01/27 07:11:30;;;;;;;21.13;11.07;;;-1.20;99.90;;;;;;5073133;28;19927;-64
2021/01/27 07:14:25;;;;;;;18.95;11.15;;;-1.20;99.90;;;;;;5059194;28;20082;-64
2021/01/27 07:17:18;;;;;;;21.10;11.57;;;-1.20;99.90;;;;;;5072735;28;20052;-64
2021/01/27 07:19:54;;;;;;;31.67;14.98;;;-1.20;99.90;;;;;;5073229;28;20080;-64
2021/01/27 07:22:38;;;;;;;31.95;15.75;;;-1.10;99.90;;;;;;5070362;28;20051;-64
2021/01/27 07:25:14;;;;;;;24.88;12.57;;;-1.00;99.90;;;;;;5072622;28;20399;-64
2021/01/27 07:27:51;;;;;;;20.20;12.20;;;-1.00;99.90;;;;;;5073422;28;20060;-64
2021/01/27 07:30:26;;;;;;;18.48;12.38;;;-0.90;99.90;;;;;;5073300;28;20486;-64
2021/01/27 07:32:59;;;;;;;24.23;12.48;;;-0.80;99.90;;;;;;5061750;28;20044;-64
2021/01/27 07:35:40;;;;;;;21.65;11.90;;;-0.80;99.90;;;;;;5072292;28;20503;-64
2021/01/27 07:38:23;;;;;;;22.60;12.18;;;-0.70;99.90;;;;;;5072665;28;20053;-64
2021/01/27 07:40:57;;;;;;;21.65;12.05;;;-0.60;99.90;;;;;;5072854;28;20483;-64
2021/01/27 07:43:37;;;;;;;17.45;10.57;;;-0.50;99.90;;;;;;5073699;28;20056;-64
2021/01/27 07:46:03;;;;;;;21.90;10.98;;;-0.40;99.90;;;;;;5072863;28;20052;-64
2021/01/27 07:48:45;;;;;;;19.85;11.13;;;-0.30;99.90;;;;;;5071895;28;20040;-64
2021/01/27 07:51:18;;;;;;;27.02;11.40;;;-0.20;99.90;;;;;;5068859;28;20044;-64
2021/01/27 07:54:04;;;;;;;19.85;11.73;;;-0.20;99.90;;;;;;5071550;28;20041;-64
2021/01/27 07:56:35;;;;;;;20.35;11.38;;;-0.20;99.90;;;;;;5072808;28;20044;-64
2021/01/27 07:59:14;;;;;;;19.73;12.25;;;-0.20;99.90;;;;;;5072971;28;20044;-65
2021/01/27 08:01:50;;;;;;;18.50;11.15;;;-0.20;99.90;;;;;;5072673;28;20048;-64
2021/01/27 08:04:34;;;;;;;17.75;10.95;;;-0.20;99.90;;;;;;5071969;28;20053;-65
2021/01/27 08:07:01;;;;;;;19.48;10.70;;;0.00;99.90;;;;;;5072331;28;20052;-64
2021/01/27 08:09:38;;;;;;;16.98;9.95;;;0.00;99.90;;;;;;5071558;28;20053;-64
2021/01/27 08:12:16;;;;;;;16.63;10.18;;;0.10;99.90;;;;;;5072330;28;20056;-64
2021/01/27 08:15:33;;;;;;;15.23;9.73;;;0.20;99.90;;;;;;5071897;28;20094;-64
2021/01/27 08:18:11;;;;;;;21.85;11.13;;;0.30;99.90;;;;;;5072280;28;20048;-66
2021/01/27 08:20:41;;;;;;;20.00;12.27;;;0.50;99.90;;;;;;5072347;28;20048;-66
2021/01/27 08:23:29;;;;;;;16.52;10.38;;;0.70;99.90;;;;;;5072286;28;20044;-67
2021/01/27 08:25:58;;;;;;;18.75;10.48;;;0.80;99.90;;;;;;5071864;28;20056;-64
2021/01/27 08:28:37;;;;;;;15.60;9.80;;;0.80;99.90;;;;;;5060855;28;20392;-64
2021/01/27 08:31:10;;;;;;;17.52;10.93;;;0.80;99.90;;;;;;5071483;28;20049;-65
2021/01/27 08:33:52;;;;;;;19.88;10.73;;;0.90;99.90;;;;;;5066182;28;20060;-64
2021/01/27 08:36:28;;;;;;;23.00;10.32;;;1.00;99.90;;;;;;5070146;28;20048;-63
2021/01/27 08:38:58;;;;;;;21.98;10.35;;;1.10;99.90;;;;;;5068215;28;20055;-66
2021/01/27 08:41:56;;;;;;;16.85;11.10;;;1.30;99.90;;;;;;5071089;28;20071;-66
2021/01/27 08:44:25;;;;;;;18.88;10.57;;;1.20;99.90;;;;;;5069211;28;20052;-66
2021/01/27 08:47:00;;;;;;;20.80;11.38;;;1.20;99.90;;;;;;5071679;28;20044;-66
2021/01/27 08:49:36;;;;;;;25.88;13.02;;;1.20;99.90;;;;;;5072256;28;20052;-66
2021/01/27 08:52:09;;;;;;;19.35;10.13;;;1.20;99.90;;;;;;5070839;28;20060;-66
2021/01/27 08:54:41;;;;;;;15.98;10.13;;;1.30;99.90;;;;;;5072205;28;20051;-67
2021/01/27 08:57:24;;;;;;;16.00;10.18;;;1.40;99.90;;;;;;5071690;28;20047;-64
2021/01/27 09:00:12;;;;;;;22.15;13.25;;;1.40;99.90;;;;;;5067544;28;20045;-66
2021/01/27 09:02:59;;;;;;;17.40;10.30;;;1.40;99.90;;;;;;5063096;28;20072;-66
2021/01/27 09:05:26;;;;;;;14.68;9.10;;;1.50;99.90;;;;;;5071610;28;20157;-66
2021/01/27 09:07:57;;;;;;;18.70;10.45;;;1.60;99.90;;;;;;5071662;28;20438;-66
2021/01/27 09:10:28;;;;;;;16.73;9.48;;;1.70;99.90;;;;;;5069308;28;20051;-67
2021/01/27 09:12:54;;;;;;;15.73;10.07;;;1.70;99.90;;;;;;5064469;28;20044;-66
2021/01/27 09:15:29;;;;;;;17.95;9.85;;;1.80;99.90;;;;;;5070929;28;20047;-66
2021/01/27 09:17:57;;;;;;;16.58;10.45;;;2.00;99.90;;;;;;5071638;28;20063;-66
2021/01/27 09:20:27;;;;;;;16.55;10.05;;;2.10;99.90;;;;;;5070759;28;20045;-67
2021/01/27 09:23:04;;;;;;;23.42;12.77;;;2.10;99.90;;;;;;5070430;28;20055;-66
2021/01/27 09:25:33;;;;;;;24.10;12.55;;;2.20;99.90;;;;;;5068589;28;20214;-67
2021/01/27 09:28:08;;;;;;;20.63;12.18;;;2.30;99.90;;;;;;5071019;28;20049;-66
2021/01/27 09:30:35;;;;;;;15.38;9.60;;;2.40;99.90;;;;;;5069430;28;20410;-66
2021/01/27 09:33:26;;;;;;;15.27;9.13;;;2.40;99.90;;;;;;5069522;28;20044;-66
2021/01/27 09:36:15;;;;;;;14.70;8.93;;;2.50;99.90;;;;;;5069576;28;20049;-67
2021/01/27 09:38:42;;;;;;;15.27;8.50;;;2.50;99.90;;;;;;5068051;28;20037;-66
2021/01/27 09:41:13;;;;;;;15.35;9.45;;;2.60;99.90;;;;;;5055844;28;20053;-66
2021/01/27 09:43:43;;;;;;;15.90;9.50;;;2.90;99.90;;;;;;5069559;28;20048;-66
2021/01/27 09:46:28;;;;;;;14.88;8.98;;;3.20;99.90;;;;;;5063725;28;20314;-66
2021/01/27 09:48:59;;;;;;;11.80;8.52;;;3.40;99.90;;;;;;5059749;28;20226;-65
2021/01/27 09:51:26;;;;;;;13.90;9.68;;;3.50;99.90;;;;;;5055158;28;20044;-65
2021/01/27 09:53:58;;;;;;;17.23;11.50;;;3.70;99.90;;;;;;5065921;28;20059;-64
2021/01/27 09:56:26;;;;;;;16.45;10.10;;;4.00;99.90;;;;;;5067730;28;20064;-65
2021/01/27 09:58:53;;;;;;;13.70;9.35;;;3.80;99.90;;;;;;5069753;28;20087;-65
2021/01/27 10:01:47;;;;;;;15.65;9.30;;;4.00;99.90;;;;;;5066715;28;20052;-65
2021/01/27 10:04:34;;;;;;;15.13;10.65;;;4.20;99.90;;;;;;5064288;28;20392;-65
2021/01/27 10:07:26;;;;;;;17.33;9.98;;;4.30;99.90;;;;;;5068694;28;20414;-65
2021/01/27 10:09:55;;;;;;;;;;;4.30;99.90;;;;;;5066039;28;20051;-65
2021/01/27 10:12:32;;;;;;;17.17;9.85;;;4.40;99.90;;;;;;5068785;28;20015;-66
2021/01/27 10:15:05;;;;;;;16.60;9.88;;;4.50;99.90;;;;;;5067153;28;20040;-65
2021/01/27 10:17:32;;;;;;;15.50;10.18;;;4.60;99.90;;;;;;5067089;28;20383;-65
2021/01/27 10:20:17;;;;;;;13.73;9.68;;;4.60;99.90;;;;;;5069436;28;20131;-65
2021/01/27 10:22:54;;;;;;;18.33;10.40;;;4.80;99.90;;;;;;5068627;28;20078;-65
2021/01/27 10:25:40;;;;;;;16.20;10.40;;;4.80;99.90;;;;;;5068939;28;20068;-65
2021/01/27 10:28:27;;;;;;;13.35;9.95;;;4.80;99.90;;;;;;5069910;28;20044;-64
2021/01/27 10:30:54;;;;;;;16.40;9.93;;;4.80;99.90;;;;;;5068413;28;20044;-65
2021/01/27 10:33:41;;;;;;;19.10;9.90;;;4.60;99.90;;;;;;5068066;28;20041;-66
2021/01/27 10:36:39;;;;;;;18.75;10.55;;;4.40;99.90;;;;;;5061408;28;20532;-67
2021/01/27 10:39:21;;;;;;;16.73;10.82;;;4.10;99.90;;;;;;5066857;28;20063;-66
2021/01/27 10:42:05;;;;;;;16.80;9.70;;;4.10;99.90;;;;;;5069126;28;20178;-64
2021/01/27 10:44:35;;;;;;;16.63;11.68;;;3.90;99.90;;;;;;5065637;28;20056;-65
2021/01/27 10:47:07;;;;;;;22.90;13.18;;;3.70;99.90;;;;;;5057800;28;20055;-65
2021/01/27 10:49:40;;;;;;;20.85;11.75;;;3.50;99.90;;;;;;5068161;28;20479;-65
2021/01/27 10:52:11;;;;;;;16.10;11.13;;;3.50;99.90;;;;;;5068263;28;20045;-65
2021/01/27 10:54:39;;;;;;;12.82;9.68;;;3.40;99.90;;;;;;5069569;28;20059;-65
2021/01/27 10:57:05;;;;;;;17.25;11.25;;;3.40;99.90;;;;;;5068467;28;20415;-65
2021/01/27 10:59:32;;;;;;;17.55;10.90;;;3.50;99.90;;;;;;5066306;28;20352;-65
2021/01/27 11:01:58;;;;;;;17.45;10.95;;;3.40;99.90;;;;;;5068569;28;20398;-65
2021/01/27 11:04:25;;;;;;;17.40;11.38;;;3.40;99.90;;;;;;5068862;28;20463;-64
2021/01/27 11:06:52;;;;;;;17.67;10.68;;;3.50;99.90;;;;;;5065858;28;20053;-64
2021/01/27 11:09:19;;;;;;;16.42;10.32;;;3.60;99.90;;;;;;5060068;28;20056;-65
2021/01/27 11:11:45;;;;;;;17.52;11.43;;;3.80;99.90;;;;;;5068241;28;20040;-68
2021/01/27 11:14:11;;;;;;;16.80;11.30;;;3.80;99.90;;;;;;5067589;28;20044;-65
2021/01/27 11:16:38;;;;;;;17.17;10.63;;;3.90;99.90;;;;;;5067150;28;20040;-66
2021/01/27 11:19:05;;;;;;;15.68;11.35;;;3.60;99.90;;;;;;5067619;28;20432;-66
2021/01/27 11:21:31;;;;;;;19.67;10.90;;;3.50;99.90;;;;;;5062258;28;20411;-66
2021/01/27 11:23:58;;;;;;;16.25;10.43;;;3.80;99.90;;;;;;5068247;28;20054;-66
2021/01/27 11:26:25;;;;;;;16.63;11.30;;;4.00;99.90;;;;;;5064605;28;20090;-66
2021/01/27 11:28:52;;;;;;;14.73;9.70;;;4.20;99.90;;;;;;5070806;28;20052;-66
2021/01/27 11:31:18;;;;;;;18.98;11.52;;;4.40;99.90;;;;;;5070947;28;20418;-65
2021/01/27 11:33:45;;;;;;;17.98;10.57;;;4.60;99.90;;;;;;5068907;28;20048;-66
2021/01/27 11:36:17;;;;;;;16.35;10.73;;;4.60;99.90;;;;;;5068509;28;20098;-66
2021/01/27 11:38:46;;;;;;;17.13;11.63;;;4.70;99.90;;;;;;5067967;28;20335;-66
2021/01/27 11:41:13;;;;;;;22.58;12.50;;;4.90;99.90;;;;;;5067774;28;20490;-65
2021/01/27 11:43:43;;;;;;;15.15;10.48;;;4.80;99.90;;;;;;5068650;28;20106;-65
2021/01/27 11:46:15;;;;;;;17.15;10.18;;;4.80;99.90;;;;;;5057348;28;20054;-66
2021/01/27 11:48:43;;;;;;;15.82;11.00;;;4.70;99.90;;;;;;5066853;28;20072;-63
2021/01/27 11:51:11;;;;;;;17.05;10.50;;;4.80;99.90;;;;;;5066925;28;20135;-65
2021/01/27 11:53:39;;;;;;;12.90;10.10;;;4.70;99.90;;;;;;5068748;28;20498;-65
2021/01/27 11:56:08;;;;;;;12.82;9.68;;;4.60;99.90;;;;;;5069205;28;20040;-65
2021/01/27 11:58:35;;;;;;;17.25;10.50;;;4.30;99.90;;;;;;5062533;28;20051;-65
2021/01/27 12:01:02;;;;;;;15.35;10.35;;;4.40;99.90;;;;;;5068797;28;20497;-66
2021/01/27 12:03:29;;;;;;;18.48;10.80;;;4.50;99.90;;;;;;5068793;28;20396;-66
2021/01/27 12:05:55;;;;;;;15.13;10.50;;;4.40;99.90;;;;;;5067451;28;20483;-66
2021/01/27 12:08:22;;;;;;;22.98;15.25;;;4.20;99.90;;;;;;5064486;28;20170;-66
2021/01/27 12:10:49;;;;;;;15.35;10.20;;;4.20;99.90;;;;;;5067642;28;20052;-66
2021/01/27 12:13:16;;;;;;;19.02;11.25;;;4.10;99.90;;;;;;5067417;28;20052;-66
2021/01/27 12:15:43;;;;;;;17.77;11.63;;;4.20;99.90;;;;;;5068395;28;20135;-66
2021/01/27 12:18:12;;;;;;;15.35;11.05;;;4.10;99.90;;;;;;5065442;28;20410;-66
2021/01/27 12:20:41;;;;;;;18.95;10.90;;;4.20;99.90;;;;;;5067355;28;20198;-65
2021/01/27 12:23:07;;;;;;;14.63;10.93;;;4.20;99.90;;;;;;5071460;28;20049;-66
2021/01/27 12:25:33;;;;;;;16.52;11.38;;;4.20;99.90;;;;;;5069459;28;20404;-66
2021/01/27 12:28:00;;;;;;;20.52;11.27;;;4.40;99.90;;;;;;5070604;28;20047;-66
2021/01/27 12:30:26;;;;;;;17.23;10.43;;;4.60;99.90;;;;;;5072036;28;20059;-65
2021/01/27 12:32:53;;;;;;;16.63;12.40;;;4.70;99.90;;;;;;5065770;28;20517;-63
2021/01/27 12:35:21;;;;;;;17.80;10.68;;;4.90;99.90;;;;;;5072135;28;20071;-64
2021/01/27 12:37:48;;;;;;;16.52;11.10;;;5.00;99.90;;;;;;5069163;28;20071;-63
2021/01/27 12:40:20;;;;;;;12.85;10.15;;;5.00;99.90;;;;;;5068730;28;20045;-64
2021/01/27 12:42:46;;;;;;;12.20;9.95;;;4.90;99.90;;;;;;5070773;28;20056;-64
2021/01/27 12:45:15;;;;;;;12.65;9.38;;;4.90;99.90;;;;;;5069574;28;20052;-63
2021/01/27 12:47:42;;;;;;;12.32;9.07;;;4.60;99.90;;;;;;5071078;28;20082;-64
2021/01/27 12:50:10;;;;;;;23.65;14.25;;;4.50;99.90;;;;;;5086256;28;20428;-64
2021/01/27 12:52:37;;;;;;;11.40;8.95;;;4.40;99.90;;;;;;5064890;28;20506;-65
2021/01/27 12:55:09;;;;;;;11.50;8.27;;;4.20;99.90;;;;;;5064475;28;20058;-64
2021/01/27 12:57:39;;;;;;;12.55;8.05;;;4.00;99.90;;;;;;5069308;28;20041;-65
2021/01/27 13:00:08;;;;;;;11.10;8.43;;;4.00;99.90;;;;;;5070692;28;20047;-63
2021/01/27 13:02:35;;;;;;;13.30;8.05;;;4.00;99.90;;;;;;5070362;28;20059;-64
2021/01/27 13:05:02;;;;;;;9.70;7.57;;;3.70;99.90;;;;;;5070951;28;20048;-64
2021/01/27 13:07:28;;;;;;;9.65;7.57;;;3.70;99.90;;;;;;5069256;28;20087;-64
2021/01/27 13:09:55;;;;;;;8.70;6.90;;;3.70;99.90;;;;;;5070673;28;20045;-64
2021/01/27 13:12:24;;;;;;;9.73;6.68;;;3.60;99.90;;;;;;5070508;28;20039;-64